Time;durP1;ratioP1;P1;durP2;ratioP2;P2;SDS_P1;SDS_P2;PMS_P1;PMS_P2;Temp;Humidity;BMP_temperature;BMP_pressure;BME280_temperature;BME280_humidity;BME280_pressure;Samples;Min_cycle;Max_cycle;Signal;HPM_P1;HPM_P2
2022/11/09 00:00:29;;;;;;;;;;;17.10;96.60;;;;;;5113789;28;19973;-69
2022/11/09 00:02:55;;;;;;;;;;;17.20;96.60;;;;;;5078081;28;19947;-67
2022/11/09 00:05:20;;;;;;;;;;;16.90;96.50;;;;;;5104211;28;20293;-68
2022/11/09 00:07:46;;;;;;;;;;;16.90;96.50;;;;;;5112678;28;19993;-67
2022/11/09 00:10:11;;;;;;;;;;;16.80;96.40;;;;;;5088693;28;19930;-66
2022/11/09 00:12:37;;;;;;;;;;;16.90;96.40;;;;;;5093995;28;20018;-66
2022/11/09 00:15:03;;;;;;;;;;;16.80;96.40;;;;;;5085637;28;20015;-65
2022/11/09 00:17:28;;;;;;;;;;;17.00;96.40;;;;;;5108910;28;19924;-66
2022/11/09 00:19:54;;;;;;;;;;;16.80;96.40;;;;;;5109451;28;19928;-66
2022/11/09 00:22:20;;;;;;;;;;;16.80;96.40;;;;;;5113001;28;19997;-66
2022/11/09 00:24:45;;;;;;;;;;;16.90;96.50;;;;;;5112998;28;19924;-66
2022/11/09 00:27:11;;;;;;;;;;;17.00;96.50;;;;;;5112022;28;20377;-69
2022/11/09 00:29:37;;;;;;;;;;;17.10;96.50;;;;;;5109617;28;20060;-69
2022/11/09 00:32:02;;;;;;;;;;;16.90;96.50;;;;;;5122783;27;19928;-69
2022/11/09 00:34:28;;;;;;;;;;;17.00;96.40;;;;;;5111801;28;19924;-69
2022/11/09 00:36:54;;;;;;;;;;;16.70;96.40;;;;;;5090488;28;19928;-68
2022/11/09 00:39:19;;;;;;;;;;;17.10;96.50;;;;;;5103578;28;20377;-68
2022/11/09 00:41:45;;;;;;;;;;;17.10;96.40;;;;;;5109476;28;19931;-68
2022/11/09 00:44:10;;;;;;;;;;;17.00;96.40;;;;;;5111875;28;19931;-69
2022/11/09 00:46:36;;;;;;;;;;;17.00;96.40;;;;;;5110242;28;19927;-66
2022/11/09 00:49:02;;;;;;;;;;;16.90;96.30;;;;;;5109424;28;20296;-66
2022/11/09 00:51:28;;;;;;;;;;;;;;;;;;5111006;28;20364;-67
2022/11/09 00:53:54;;;;;;;;;;;16.90;96.30;;;;;;5111765;28;20343;-66
2022/11/09 00:56:20;;;;;;;;;;;17.20;96.40;;;;;;5094951;28;20331;-66
2022/11/09 00:58:46;;;;;;;;;;;16.90;96.30;;;;;;5079731;28;19931;-66
2022/11/09 01:01:12;;;;;;;;;;;16.90;96.30;;;;;;5111369;28;19924;-66
2022/11/09 01:03:38;;;;;;;;;;;17.10;96.40;;;;;;5092720;28;19970;-66
2022/11/09 01:06:04;;;;;;;;;;;17.10;96.30;;;;;;5089981;28;20073;-68
2022/11/09 01:08:30;;;;;;;;;;;17.00;96.30;;;;;;5111844;28;19981;-68
2022/11/09 01:10:55;;;;;;;;;;;16.90;96.30;;;;;;5095139;28;20014;-68
2022/11/09 01:13:21;;;;;;;;;;;16.90;96.30;;;;;;5111624;28;19931;-69
2022/11/09 01:15:47;;;;;;;;;;;17.00;96.40;;;;;;5111018;28;19924;-69
2022/11/09 01:18:13;;;;;;;;;;;17.00;96.30;;;;;;5092636;28;19923;-68
2022/11/09 01:20:40;;;;;;;;;;;17.00;96.30;;;;;;5081992;28;20336;-66
2022/11/09 01:23:05;;;;;;;;;;;17.00;96.30;;;;;;5095680;28;19923;-66
2022/11/09 01:25:31;;;;;;;;;;;16.80;96.30;;;;;;5114655;28;19932;-66
2022/11/09 01:27:57;;;;;;;;;;;17.20;96.40;;;;;;5116693;28;20293;-66
2022/11/09 01:30:23;;;;;;;;;;;16.90;96.30;;;;;;5097305;28;19924;-66
2022/11/09 01:32:49;;;;;;;;;;;17.20;96.40;;;;;;5095129;28;20412;-66
2022/11/09 01:35:14;;;;;;;;;;;17.00;96.40;;;;;;5114003;28;19927;-66
2022/11/09 01:37:40;;;;;;;;;;;17.00;96.40;;;;;;5112565;28;19923;-66
2022/11/09 01:40:06;;;;;;;;;;;17.00;96.40;;;;;;5104590;28;20360;-66
2022/11/09 01:42:33;;;;;;;;;;;17.10;96.40;;;;;;5112552;28;20012;-68
2022/11/09 01:45:18;;;;;;;;;;;16.70;96.20;;;;;;5115652;28;19924;-69
2022/11/09 01:47:47;;;;;;;;;;;17.00;96.30;;;;;;5116699;28;19924;-66
2022/11/09 01:50:13;;;;;;;;;;;16.90;96.30;;;;;;5114613;28;19977;-66
2022/11/09 01:52:39;;;;;;;;;;;16.90;96.30;;;;;;5097254;28;19967;-66
2022/11/09 01:55:09;;;;;;;;;;;17.00;96.30;;;;;;5113438;28;19924;-66
2022/11/09 01:57:38;;;;;;;;;;;16.80;96.30;;;;;;5082277;28;19928;-67
2022/11/09 02:00:06;;;;;;;;;;;;;;;;;;5111514;28;19928;-67
2022/11/09 02:02:32;;;;;;;;;;;17.00;96.30;;;;;;5115043;28;19927;-67
2022/11/09 02:05:02;;;;;;;;;;;16.90;96.30;;;;;;5116271;28;19924;-67
2022/11/09 02:07:27;;;;;;;;;;;16.90;96.30;;;;;;5115538;28;19965;-67
2022/11/09 02:10:12;;;;;;;;;;;17.00;96.30;;;;;;5115322;28;19923;-67
2022/11/09 02:12:37;;;;;;;;;;;17.10;96.40;;;;;;5103449;28;19945;-68
2022/11/09 02:15:03;;;;;;;;;;;16.80;96.30;;;;;;5085210;28;20381;-67
2022/11/09 02:17:29;;;;;;;;;;;16.90;96.30;;;;;;5098402;28;19924;-67
2022/11/09 02:19:58;;;;;;;;;;;17.00;96.30;;;;;;5114850;28;19930;-67
2022/11/09 02:22:23;;;;;;;;;;;16.90;96.30;;;;;;5097292;28;20326;-67
2022/11/09 02:24:49;;;;;;;;;;;16.90;96.30;;;;;;5110385;28;19920;-67
2022/11/09 02:27:15;;;;;;;;;;;;;;;;;;5114578;28;20015;-68
2022/11/09 02:29:41;;;;;;;;;;;16.80;96.30;;;;;;5113084;28;20015;-68
2022/11/09 02:32:17;;;;;;;;;;;16.90;96.30;;;;;;5111972;28;19953;-67
2022/11/09 02:34:43;;;;;;;;;;;17.20;96.40;;;;;;5094683;28;20018;-67
2022/11/09 02:37:09;;;;;;;;;;;16.70;96.30;;;;;;5111106;28;20012;-67
2022/11/09 02:39:34;;;;;;;;;;;16.80;96.30;;;;;;5114550;28;19928;-67
2022/11/09 02:42:00;;;;;;;;;;;16.80;96.30;;;;;;5096745;28;19923;-67
2022/11/09 02:44:25;;;;;;;;;;;16.70;96.20;;;;;;5113666;28;19923;-67
2022/11/09 02:46:51;;;;;;;;;;;16.70;96.30;;;;;;5114041;28;19931;-66
2022/11/09 02:49:17;;;;;;;;;;;16.80;96.30;;;;;;5116736;28;19931;-66
2022/11/09 02:51:42;;;;;;;;;;;16.70;96.30;;;;;;5115669;28;19930;-66
2022/11/09 02:54:08;;;;;;;;;;;17.00;96.30;;;;;;5096643;28;19924;-67
2022/11/09 02:56:34;;;;;;;;;;;16.80;96.30;;;;;;5096453;28;19927;-68
2022/11/09 02:58:59;;;;;;;;;;;16.90;96.30;;;;;;5115292;28;19950;-67
2022/11/09 03:01:25;;;;;;;;;;;16.90;96.30;;;;;;5113815;28;20377;-67
2022/11/09 03:03:50;;;;;;;;;;;16.80;96.30;;;;;;5102645;28;20029;-68
2022/11/09 03:06:16;;;;;;;;;;;17.10;96.40;;;;;;5114299;28;20003;-68
2022/11/09 03:08:41;;;;;;;;;;;17.00;96.30;;;;;;5113219;28;20441;-67
2022/11/09 03:11:07;;;;;;;;;;;16.70;96.30;;;;;;5113079;28;20672;-67
2022/11/09 03:13:33;;;;;;;;;;;16.80;96.30;;;;;;5081251;28;19923;-67
2022/11/09 03:16:08;;;;;;;;;;;16.70;96.30;;;;;;5094966;28;20392;-68
2022/11/09 03:18:33;;;;;;;;;;;16.80;96.30;;;;;;5113082;28;20404;-67
2022/11/09 03:21:02;;;;;;;;;;;17.00;96.30;;;;;;5107412;28;19924;-68
2022/11/09 03:23:28;;;;;;;;;;;16.70;96.20;;;;;;5096115;28;20381;-66
2022/11/09 03:25:54;;;;;;;;;;;17.00;96.30;;;;;;5103080;28;19969;-66
2022/11/09 03:28:19;;;;;;;;;;;16.60;96.20;;;;;;5113356;28;19924;-66
2022/11/09 03:30:45;;;;;;;;;;;16.80;96.30;;;;;;5110581;27;19924;-66
2022/11/09 03:33:13;;;;;;;;;;;16.90;96.30;;;;;;5114618;28;19924;-68
2022/11/09 03:35:38;;;;;;;;;;;16.90;96.30;;;;;;5111246;28;19930;-67
2022/11/09 03:38:04;;;;;;;;;;;17.20;96.40;;;;;;5103687;28;19928;-67
2022/11/09 03:40:30;;;;;;;;;;;16.70;96.20;;;;;;5112336;28;19923;-67
2022/11/09 03:42:55;;;;;;;;;;;16.80;96.30;;;;;;5115119;28;19926;-67
2022/11/09 03:45:21;;;;;;;;;;;16.90;96.30;;;;;;5096104;28;19923;-67
2022/11/09 03:47:47;;;;;;;;;;;16.70;96.20;;;;;;5113172;28;19931;-67
2022/11/09 03:50:13;;;;;;;;;;;16.80;96.30;;;;;;5112370;28;19930;-69
2022/11/09 03:52:39;;;;;;;;;;;16.80;96.20;;;;;;5096714;28;19932;-67
2022/11/09 03:55:04;;;;;;;;;;;16.80;96.30;;;;;;5100278;28;19920;-69
2022/11/09 03:57:30;;;;;;;;;;;16.70;96.20;;;;;;5109861;28;19924;-69
2022/11/09 03:59:56;;;;;;;;;;;16.70;96.20;;;;;;5112415;28;19971;-67
2022/11/09 04:02:21;;;;;;;;;;;16.70;96.20;;;;;;5107284;28;19979;-68
2022/11/09 04:04:47;;;;;;;;;;;16.80;96.30;;;;;;5114713;28;19924;-69
2022/11/09 04:07:13;;;;;;;;;;;16.80;96.30;;;;;;5111851;28;19924;-68
2022/11/09 04:09:38;;;;;;;;;;;16.90;96.30;;;;;;5113780;28;19927;-68
2022/11/09 04:12:04;;;;;;;;;;;17.10;96.30;;;;;;5097895;28;19935;-69
2022/11/09 04:14:29;;;;;;;;;;;16.80;96.30;;;;;;5094421;28;19963;-69
2022/11/09 04:16:55;;;;;;;;;;;16.80;96.20;;;;;;5125608;27;19924;-69
2022/11/09 04:19:21;;;;;;;;;;;16.90;96.20;;;;;;5111594;28;19924;-69
2022/11/09 04:21:47;;;;;;;;;;;16.80;96.20;;;;;;5112816;28;19924;-68
2022/11/09 04:24:13;;;;;;;;;;;16.70;96.20;;;;;;5112647;28;19960;-69
2022/11/09 04:26:38;;;;;;;;;;;16.90;96.20;;;;;;5113139;27;19932;-69
2022/11/09 04:29:04;;;;;;;;;;;16.80;96.20;;;;;;5110318;28;19928;-69
2022/11/09 04:31:30;;;;;;;;;;;16.90;96.20;;;;;;5112488;28;20395;-69
2022/11/09 04:33:55;;;;;;;;;;;16.90;96.20;;;;;;5112636;28;19927;-69
2022/11/09 04:36:21;;;;;;;;;;;16.90;96.20;;;;;;5113794;28;19985;-69
2022/11/09 04:38:46;;;;;;;;;;;17.10;96.20;;;;;;5096149;28;20330;-68
2022/11/09 04:41:12;;;;;;;;;;;16.70;96.10;;;;;;5111390;28;19924;-67
2022/11/09 04:43:38;;;;;;;;;;;16.80;96.10;;;;;;5094268;28;19928;-68
2022/11/09 04:46:03;;;;;;;;;;;16.90;96.20;;;;;;5102681;28;19931;-66
2022/11/09 04:48:29;;;;;;;;;;;16.80;96.10;;;;;;5114259;28;19920;-66
2022/11/09 04:50:59;;;;;;;;;;;17.10;96.20;;;;;;5111046;28;19924;-66
2022/11/09 04:53:25;;;;;;;;;;;17.00;96.10;;;;;;5077134;28;20292;-66
2022/11/09 04:55:50;;;;;;;;;;;16.70;96.10;;;;;;5107462;28;20010;-66
2022/11/09 04:58:16;;;;;;;;;;;16.90;96.10;;;;;;5110862;28;19986;-66
2022/11/09 05:00:41;;;;;;;;;;;16.80;96.00;;;;;;5111312;28;19928;-66
2022/11/09 05:03:07;;;;;;;;;;;17.00;96.10;;;;;;5095252;28;20392;-67
2022/11/09 05:05:33;;;;;;;;;;;16.70;96.00;;;;;;5112950;28;20400;-67
2022/11/09 05:07:59;;;;;;;;;;;16.70;96.00;;;;;;5110963;28;19924;-68
2022/11/09 05:10:24;;;;;;;;;;;16.70;96.00;;;;;;5095460;28;19931;-69
2022/11/09 05:12:50;;;;;;;;;;;16.80;96.00;;;;;;5101060;28;19930;-69
2022/11/09 05:15:16;;;;;;;;;;;16.70;96.00;;;;;;5077152;28;19931;-68
2022/11/09 05:17:41;;;;;;;;;;;17.00;96.10;;;;;;5110827;28;19924;-69
2022/11/09 05:20:07;;;;;;;;;;;16.90;96.10;;;;;;5098284;28;20358;-68
2022/11/09 05:25:17;;;;;;;;;;;16.80;95.90;;;;;;5110310;28;19931;-69
2022/11/09 05:27:43;;;;;;;;;;;16.80;96.00;;;;;;5108492;28;19924;-69
2022/11/09 05:30:09;;;;;;;;;;;17.00;96.10;;;;;;5095016;28;19931;-68
2022/11/09 05:32:35;;;;;;;;;;;16.70;96.00;;;;;;5109447;28;19928;-68
2022/11/09 05:35:00;;;;;;;;;;;16.90;96.10;;;;;;5110194;28;19930;-66
2022/11/09 05:37:26;;;;;;;;;;;16.60;96.00;;;;;;5112101;28;20468;-66
2022/11/09 05:39:52;;;;;;;;;;;16.80;96.10;;;;;;5111720;28;20007;-66
2022/11/09 05:42:18;;;;;;;;;;;;;;;;;;5112051;28;19959;-65
2022/11/09 05:44:43;;;;;;;;;;;16.70;96.00;;;;;;5105766;28;20105;-66
2022/11/09 05:47:09;;;;;;;;;;;16.70;96.00;;;;;;5112713;28;19930;-69
2022/11/09 05:49:34;;;;;;;;;;;16.90;96.10;;;;;;5094094;28;19975;-69
2022/11/09 05:52:00;;;;;;;;;;;16.80;96.10;;;;;;5112093;28;19931;-69
2022/11/09 05:54:26;;;;;;;;;;;16.70;96.10;;;;;;5109676;28;20453;-69
2022/11/09 05:56:51;;;;;;;;;;;16.70;96.10;;;;;;5109693;28;19923;-69
2022/11/09 05:59:17;;;;;;;;;;;16.80;96.10;;;;;;5112275;28;19932;-69
2022/11/09 06:01:43;;;;;;;;;;;16.70;96.10;;;;;;5112483;28;19923;-69
2022/11/09 06:04:09;;;;;;;;;;;16.50;96.00;;;;;;5110946;28;19947;-67
2022/11/09 06:06:34;;;;;;;;;;;16.60;96.10;;;;;;5113133;28;19946;-69
2022/11/09 06:09:00;;;;;;;;;;;;;;;;;;5116546;28;20372;-67
2022/11/09 06:11:27;;;;;;;;;;;16.70;96.10;;;;;;5108660;28;19930;-68
2022/11/09 06:13:53;;;;;;;;;;;16.60;96.10;;;;;;5114231;28;19923;-69
2022/11/09 06:16:19;;;;;;;;;;;16.80;96.10;;;;;;5113542;28;19946;-69
2022/11/09 06:18:44;;;;;;;;;;;17.00;96.20;;;;;;5114460;28;20314;-66
2022/11/09 06:21:10;;;;;;;;;;;16.80;96.10;;;;;;5114887;28;19924;-66
2022/11/09 06:23:36;;;;;;;;;;;16.80;96.20;;;;;;5115664;28;19971;-66
2022/11/09 06:26:05;;;;;;;;;;;17.00;96.20;;;;;;5112224;28;19923;-67
2022/11/09 06:28:30;;;;;;;;;;;16.80;96.20;;;;;;5097723;28;19931;-66
2022/11/09 06:30:59;;;;;;;;;;;16.80;96.20;;;;;;5080738;28;20372;-66
2022/11/09 06:33:25;;;;;;;;;;;16.70;96.10;;;;;;5097664;28;19968;-68
2022/11/09 06:35:50;;;;;;;;;;;17.00;96.20;;;;;;5113905;28;19923;-67
2022/11/09 06:38:16;;;;;;;;;;;16.60;96.10;;;;;;5116250;28;19931;-66
2022/11/09 06:40:41;;;;;;;;;;;16.80;96.20;;;;;;5111648;28;19955;-66
2022/11/09 06:43:08;;;;;;;;;;;16.80;96.20;;;;;;5097420;28;19924;-66
2022/11/09 06:45:33;;;;;;;;;;;17.20;96.20;;;;;;5095689;28;20052;-66
2022/11/09 06:48:00;;;;;;;;;;;16.80;96.10;;;;;;5098559;28;20018;-66
2022/11/09 06:50:26;;;;;;;;;;;16.80;96.10;;;;;;5115880;28;19923;-65
2022/11/09 06:53:01;;;;;;;;;;;16.70;96.10;;;;;;5116712;28;19993;-66
2022/11/09 06:55:27;;;;;;;;;;;16.90;96.10;;;;;;5095856;28;20342;-66
2022/11/09 06:57:53;;;;;;;;;;;17.00;96.10;;;;;;5094683;28;19925;-66
2022/11/09 07:00:19;;;;;;;;;;;16.80;96.00;;;;;;5112270;28;19969;-66
2022/11/09 07:02:44;;;;;;;;;;;16.70;96.00;;;;;;5096318;28;20011;-66
2022/11/09 07:05:10;;;;;;;;;;;16.60;96.00;;;;;;5094103;28;19924;-66
2022/11/09 07:07:35;;;;;;;;;;;16.90;96.10;;;;;;5113184;28;19931;-66
2022/11/09 07:10:01;;;;;;;;;;;16.70;96.00;;;;;;5107670;28;19924;-65
2022/11/09 07:12:27;;;;;;;;;;;16.60;96.00;;;;;;5094351;28;19924;-66
2022/11/09 07:14:52;;;;;;;;;;;16.80;96.10;;;;;;5112564;28;19931;-65
2022/11/09 07:17:18;;;;;;;;;;;16.70;96.00;;;;;;5092750;28;19920;-66
2022/11/09 07:19:44;;;;;;;;;;;16.70;96.00;;;;;;5096789;28;19927;-67
2022/11/09 07:22:10;;;;;;;;;;;16.80;96.10;;;;;;5114046;28;20012;-66
2022/11/09 07:24:35;;;;;;;;;;;16.80;96.10;;;;;;5097195;28;19923;-66
2022/11/09 07:27:01;;;;;;;;;;;17.00;96.10;;;;;;5089386;28;19985;-66
2022/11/09 07:29:27;;;;;;;;;;;16.70;96.10;;;;;;5107124;28;19931;-66
2022/11/09 07:31:52;;;;;;;;;;;16.90;96.00;;;;;;5110995;28;20381;-67
2022/11/09 07:34:18;;;;;;;;;;;;;;;;;;5114044;28;19924;-66
2022/11/09 07:36:44;;;;;;;;;;;17.00;96.00;;;;;;5111535;28;19928;-66
2022/11/09 07:39:09;;;;;;;;;;;16.60;95.90;;;;;;5114004;28;19946;-66
2022/11/09 07:41:35;;;;;;;;;;;16.90;95.90;;;;;;5114461;28;19924;-67
2022/11/09 07:44:01;;;;;;;;;;;17.00;96.00;;;;;;5114058;28;19924;-67
2022/11/09 07:46:26;;;;;;;;;;;16.90;95.90;;;;;;5114412;28;20019;-67
2022/11/09 07:48:52;;;;;;;;;;;17.00;95.90;;;;;;5093169;28;19920;-66
2022/11/09 07:51:17;;;;;;;;;;;16.70;95.80;;;;;;5103504;28;20353;-67
2022/11/09 07:53:43;;;;;;;;;;;16.80;95.80;;;;;;5095985;28;19927;-67
2022/11/09 07:56:09;;;;;;;;;;;16.90;95.90;;;;;;5114181;28;19931;-66
2022/11/09 07:58:35;;;;;;;;;;;17.00;95.90;;;;;;5094857;28;20300;-67
2022/11/09 08:01:05;;;;;;;;;;;17.10;95.90;;;;;;5096823;28;19931;-66
2022/11/09 08:03:30;;;;;;;;;;;17.00;95.80;;;;;;5096984;28;19923;-66
2022/11/09 08:05:56;;;;;;;;;;;17.20;95.90;;;;;;5113927;28;20395;-67
2022/11/09 08:08:22;;;;;;;;;;;16.90;95.80;;;;;;5113478;28;19924;-67
2022/11/09 08:10:51;;;;;;;;;;;;;;;;;;5111108;28;19924;-67
2022/11/09 08:13:16;;;;;;;;;;;17.20;95.80;;;;;;5093223;28;19924;-66
2022/11/09 08:15:42;;;;;;;;;;;17.00;95.80;;;;;;5093217;28;19931;-67
2022/11/09 08:18:12;;;;;;;;;;;17.00;95.70;;;;;;5093222;28;20026;-67
2022/11/09 08:20:37;;;;;;;;;;;17.10;95.60;;;;;;5105910;28;19923;-67
2022/11/09 08:23:03;;;;;;;;;;;17.10;95.50;;;;;;5106928;28;20333;-67
2022/11/09 08:25:29;;;;;;;;;;;17.30;95.50;;;;;;5104061;28;19919;-66
2022/11/09 08:27:55;;;;;;;;;;;17.10;95.40;;;;;;5094361;28;20348;-66
2022/11/09 08:30:20;;;;;;;;;;;17.10;95.30;;;;;;5101171;28;19949;-67
2022/11/09 08:32:46;;;;;;;;;;;17.30;95.30;;;;;;5112453;28;19924;-73
2022/11/09 08:35:16;;;;;;;;;;;17.50;95.30;;;;;;5113152;28;19930;-72
2022/11/09 08:37:42;;;;;;;;;;;17.50;95.50;;;;;;5096956;28;19977;-73
2022/11/09 08:40:08;;;;;;;;;;;17.30;95.20;;;;;;5095740;28;19923;-72
2022/11/09 08:42:33;;;;;;;;;;;17.30;95.10;;;;;;5111099;28;20308;-71
2022/11/09 08:44:59;;;;;;;;;;;17.30;95.10;;;;;;5075931;28;19924;-72
2022/11/09 08:47:25;;;;;;;;;;;17.40;95.10;;;;;;5106775;27;19931;-71
2022/11/09 08:49:50;;;;;;;;;;;17.60;95.10;;;;;;5110869;28;19930;-71
2022/11/09 08:52:16;;;;;;;;;;;17.30;95.00;;;;;;5112903;28;19931;-71
2022/11/09 08:54:42;;;;;;;;;;;17.50;95.10;;;;;;5113660;28;19923;-69
2022/11/09 08:57:07;;;;;;;;;;;17.40;95.00;;;;;;5112414;28;19923;-70
2022/11/09 08:59:33;;;;;;;;;;;17.30;95.00;;;;;;5110598;28;20472;-70
2022/11/09 09:01:59;;;;;;;;;;;17.30;95.00;;;;;;5089867;28;19930;-72
2022/11/09 09:04:24;;;;;;;;;;;17.20;95.00;;;;;;5096045;28;20010;-71
2022/11/09 09:06:50;;;;;;;;;;;17.50;95.00;;;;;;5112905;28;20304;-70
2022/11/09 09:09:15;;;;;;;;;;;17.20;95.00;;;;;;5096201;28;19985;-74
2022/11/09 09:11:41;;;;;;;;;;;17.30;95.00;;;;;;5111831;28;19924;-70
2022/11/09 09:14:07;;;;;;;;;;;17.50;95.10;;;;;;5113202;28;19924;-70
2022/11/09 09:16:32;;;;;;;;;;;17.20;95.00;;;;;;5112385;28;19924;-72
2022/11/09 09:18:58;;;;;;;;;;;17.40;95.20;;;;;;5092409;28;20007;-68
2022/11/09 09:21:23;;;;;;;;;;;17.20;95.10;;;;;;5102127;28;19980;-67
2022/11/09 09:23:49;;;;;;;;;;;17.50;95.10;;;;;;5112126;28;19927;-68
2022/11/09 09:26:15;;;;;;;;;;;17.50;95.10;;;;;;5089825;28;19924;-68
2022/11/09 09:28:40;;;;;;;;;;;17.60;95.20;;;;;;5094336;28;19923;-67
2022/11/09 09:31:06;;;;;;;;;;;17.40;95.10;;;;;;5094969;28;19924;-67
2022/11/09 09:33:32;;;;;;;;;;;17.60;95.20;;;;;;5110321;28;19923;-67
2022/11/09 09:35:58;;;;;;;;;;;17.50;95.20;;;;;;5075343;28;19924;-67
2022/11/09 09:38:26;;;;;;;;;;;17.50;95.20;;;;;;5094989;28;19928;-67
2022/11/09 09:40:57;;;;;;;;;;;17.50;95.20;;;;;;5113324;28;20011;-67
2022/11/09 09:43:26;;;;;;;;;;;17.30;95.10;;;;;;5112362;28;19923;-68
2022/11/09 09:45:53;;;;;;;;;;;17.50;95.10;;;;;;5062936;28;20400;-67
2022/11/09 09:48:23;;;;;;;;;;;17.60;95.20;;;;;;5095672;28;19975;-73
2022/11/09 09:50:52;;;;;;;;;;;17.70;95.30;;;;;;5098521;28;19973;-67
2022/11/09 09:53:35;;;;;;;;;;;17.60;95.30;;;;;;5099659;28;19924;-68
2022/11/09 09:56:04;;;;;;;;;;;17.70;94.90;;;;;;5099277;28;19924;-67
2022/11/09 09:58:30;;;;;;;;;;;17.30;95.30;;;;;;5116076;28;19923;-68
2022/11/09 10:01:02;;;;;;;;;;;17.50;95.60;;;;;;5116274;28;19924;-68
2022/11/09 10:03:28;;;;;;;;;;;17.50;95.60;;;;;;5099382;28;19967;-68
2022/11/09 10:06:00;;;;;;;;;;;17.70;95.50;;;;;;5115983;28;20432;-67
2022/11/09 10:08:37;;;;;;;;;;;17.80;95.20;;;;;;5116289;28;19923;-67
2022/11/09 10:11:06;;;;;;;;;;;17.80;95.50;;;;;;5099318;28;20280;-68
2022/11/09 10:13:45;;;;;;;;;;;18.10;95.80;;;;;;5117525;28;20295;-68
2022/11/09 10:16:40;;;;;;;;;;;17.70;95.50;;;;;;5117244;28;19924;-67
2022/11/09 10:19:06;;;;;;;;;;;17.80;95.60;;;;;;5106618;28;19924;-66
2022/11/09 10:21:50;;;;;;;;;;;17.80;95.60;;;;;;5116953;28;19923;-66
2022/11/09 10:24:34;;;;;;;;;;;17.90;95.20;;;;;;5117790;28;19931;-66
2022/11/09 10:27:00;;;;;;;;;;;18.00;95.60;;;;;;5115639;28;19970;-66
2022/11/09 10:29:27;;;;;;;;;;;18.40;95.70;;;;;;5115659;28;19958;-66
2022/11/09 10:32:09;;;;;;;;;;;18.30;95.50;;;;;;5115573;28;19986;-66
2022/11/09 10:34:37;;;;;;;;;;;18.30;95.50;;;;;;5098425;28;19924;-66
2022/11/09 10:37:04;;;;;;;;;;;18.10;95.50;;;;;;5132963;27;20281;-66
2022/11/09 10:39:34;;;;;;;;;;;18.40;95.70;;;;;;5116660;28;19924;-66
2022/11/09 10:42:00;;;;;;;;;;;18.30;95.40;;;;;;5110034;28;20296;-66
2022/11/09 10:44:25;;;;;;;;;;;18.10;95.30;;;;;;5096462;28;19924;-66
2022/11/09 10:47:01;;;;;;;;;;;18.30;95.30;;;;;;5096075;28;20015;-69
2022/11/09 10:49:27;;;;;;;;;;;18.50;94.90;;;;;;5097219;28;19924;-68
2022/11/09 10:51:52;;;;;;;;;;;18.30;95.30;;;;;;5116762;28;19924;-68
2022/11/09 10:54:19;;;;;;;;;;;18.40;95.20;;;;;;5116459;28;20373;-67
2022/11/09 10:56:49;;;;;;;;;;;18.50;95.40;;;;;;5098257;28;19928;-68
2022/11/09 10:59:33;;;;;;;;;;;18.30;94.70;;;;;;5114572;28;20329;-67
2022/11/09 11:01:59;;;;;;;;;;;18.70;94.70;;;;;;5116560;28;19924;-68
2022/11/09 11:04:24;;;;;;;;;;;18.70;95.10;;;;;;5116130;28;20011;-67
2022/11/09 11:06:50;;;;;;;;;;;18.70;95.00;;;;;;5115298;28;19928;-68
2022/11/09 11:09:18;;;;;;;;;;;18.70;94.90;;;;;;5114969;28;19928;-66
2022/11/09 11:11:44;;;;;;;;;;;18.30;94.70;;;;;;5097822;28;19988;-66
2022/11/09 11:14:14;;;;;;;;;;;18.50;94.60;;;;;;5116250;28;20293;-66
2022/11/09 11:16:40;;;;;;;;;;;18.30;94.60;;;;;;5104741;28;19924;-66
2022/11/09 11:19:24;;;;;;;;;;;18.80;94.90;;;;;;5077468;28;19932;-67
2022/11/09 11:22:08;;;;;;;;;;;18.50;94.50;;;;;;5094806;28;19978;-66
2022/11/09 11:24:41;;;;;;;;;;;18.40;94.10;;;;;;5094470;28;20349;-66
2022/11/09 11:27:10;;;;;;;;;;;18.70;94.10;;;;;;5095340;28;19931;-66
2022/11/09 11:29:47;;;;;;;;;;;18.50;94.00;;;;;;5077036;28;19924;-66
2022/11/09 11:32:17;;;;;;;;;;;18.70;94.00;;;;;;5095238;28;19974;-66
2022/11/09 11:34:42;;;;;;;;;;;18.60;94.00;;;;;;5094644;27;19924;-66
2022/11/09 11:37:27;;;;;;;;;;;18.70;94.40;;;;;;5094282;28;19925;-66
2022/11/09 11:39:53;;;;;;;;;;;18.50;93.80;;;;;;5077346;28;20498;-66
2022/11/09 11:42:42;;;;;;;;;;;17.70;93.90;;;;;;5093846;28;20008;-66
2022/11/09 11:45:08;;;;;;;;;;;18.50;93.70;;;;;;5087983;28;19935;-66
2022/11/09 11:47:37;;;;;;;;;;;18.60;94.20;;;;;;5077150;28;20021;-67
2022/11/09 11:50:09;;;;;;;;;;;18.50;94.10;;;;;;5080545;28;19981;-67
2022/11/09 11:52:45;;;;;;;;;;;18.50;93.70;;;;;;5093575;28;20457;-67
2022/11/09 11:55:18;;;;;;;;;;;18.20;93.60;;;;;;5107089;28;19970;-67
2022/11/09 11:57:43;;;;;;;;;;;18.60;93.70;;;;;;5113860;28;20022;-66
2022/11/09 12:00:09;;;;;;;;;;;18.40;94.10;;;;;;5096852;28;19978;-67
2022/11/09 12:02:53;;;;;;;;;;;18.30;94.00;;;;;;5115706;28;19924;-67
2022/11/09 12:05:38;;;;;;;;;;;18.30;93.70;;;;;;5112930;28;20450;-67
2022/11/09 12:08:03;;;;;;;;;;;18.60;93.80;;;;;;5100581;28;19935;-67
2022/11/09 12:10:30;;;;;;;;;;;18.50;94.30;;;;;;5076406;28;19924;-67
2022/11/09 12:13:04;;;;;;;;;;;18.40;94.10;;;;;;5100750;28;20295;-69
2022/11/09 12:15:49;;;;;;;;;;;18.40;93.70;;;;;;5112820;28;20365;-69
2022/11/09 12:18:35;;;;;;;;;;;18.40;94.10;;;;;;5113685;28;19927;-69
2022/11/09 12:21:24;;;;;;;;;;;18.20;94.20;;;;;;5104248;28;20007;-68
2022/11/09 12:23:56;;;;;;;;;;;18.30;93.80;;;;;;5107413;28;20411;-67
2022/11/09 12:26:29;;;;;;;;;;;18.30;93.90;;;;;;5076211;28;20018;-68
2022/11/09 12:29:14;;;;;;;;;;;17.80;94.20;;;;;;5076158;28;19924;-67
2022/11/09 12:31:42;;;;;;;;;;;18.30;93.90;;;;;;5109335;28;19924;-67
2022/11/09 12:34:17;;;;;;;;;;;18.20;94.20;;;;;;5113112;28;20007;-67
2022/11/09 12:36:43;;;;;;;;;;;18.00;94.20;;;;;;5113252;28;19928;-67
2022/11/09 12:39:19;;;;;;;;;;;18.30;94.30;;;;;;5113201;28;20046;-67
2022/11/09 12:41:45;;;;;;;;;;;18.40;93.90;;;;;;5095310;28;19974;-67
2022/11/09 12:44:18;;;;;;;;;;;18.30;94.30;;;;;;5109447;28;19990;-67
2022/11/09 12:46:48;;;;;;;;;;;18.10;94.30;;;;;;5106176;28;19930;-69
2022/11/09 12:49:40;;;;;;;;;;;18.20;94.60;;;;;;5087465;28;19934;-68
2022/11/09 12:52:07;;;;;;;;;;;17.90;94.30;;;;;;5105598;28;19924;-69
2022/11/09 12:54:34;;;;;;;;;;;18.00;94.60;;;;;;5113581;28;19950;-67
2022/11/09 12:57:01;;;;;;;;;;;18.00;94.40;;;;;;5105393;28;19924;-67
2022/11/09 12:59:26;;;;;;;;;;;18.00;94.70;;;;;;5110882;28;20035;-67
2022/11/09 13:01:56;;;;;;;;;;;17.70;94.40;;;;;;5095864;28;20421;-67
2022/11/09 13:04:22;;;;;;;;;;;17.70;94.40;;;;;;5095840;28;19969;-67
2022/11/09 13:07:03;;;;;;;;;;;17.70;94.50;;;;;;5096030;28;19924;-67
2022/11/09 13:09:29;;;;;;;;;;;18.00;94.00;;;;;;5114301;28;19927;-67
2022/11/09 13:11:55;;;;;;;;;;;17.80;94.40;;;;;;5095866;28;20377;-67
2022/11/09 13:14:21;;;;;;;;;;;17.80;94.30;;;;;;5113527;28;19927;-67
2022/11/09 13:16:47;;;;;;;;;;;18.10;94.40;;;;;;5115378;28;19924;-67
2022/11/09 13:19:33;;;;;;;;;;;17.80;94.40;;;;;;5116969;28;19934;-68
2022/11/09 13:21:59;;;;;;;;;;;17.70;94.60;;;;;;5116848;28;20389;-68
2022/11/09 13:24:30;;;;;;;;;;;17.70;94.60;;;;;;5118487;28;19947;-68
2022/11/09 13:26:56;;;;;;;;;;;17.80;94.00;;;;;;5117167;28;19988;-68
2022/11/09 13:29:22;;;;;;;;;;;17.70;94.50;;;;;;5116678;28;20389;-67
2022/11/09 13:31:58;;;;;;;;;;;17.80;94.50;;;;;;5113250;28;20297;-67
2022/11/09 13:34:46;;;;;;;;;;;17.60;94.00;;;;;;5113585;28;19993;-67
2022/11/09 13:37:30;;;;;;;;;;;17.90;94.20;;;;;;5100039;28;20029;-68
2022/11/09 13:39:56;;;;;;;;;;;17.70;94.10;;;;;;5117834;28;20389;-67
2022/11/09 13:42:28;;;;;;;;;;;16.30;94.20;;;;;;5116572;28;19949;-67
2022/11/09 13:45:14;;;;;;;;;;;17.60;94.10;;;;;;5099314;28;19924;-67
2022/11/09 13:47:40;;;;;;;;;;;17.60;94.80;;;;;;5096221;28;19928;-69
2022/11/09 13:50:16;;;;;;;;;;;17.60;94.70;;;;;;5079582;28;19928;-68
2022/11/09 13:52:42;;;;;;;;;;;17.40;94.30;;;;;;5085122;28;20342;-68
2022/11/09 13:55:23;;;;;;;;;;;17.60;95.00;;;;;;5115098;28;19927;-68
2022/11/09 13:57:49;;;;;;;;;;;17.70;94.60;;;;;;5116202;28;20389;-68
2022/11/09 14:00:18;;;;;;;;;;;17.90;95.30;;;;;;5099323;28;20011;-68
2022/11/09 14:03:22;;;;;;;;;;;17.90;95.30;;;;;;5099257;28;20502;-69
2022/11/09 14:05:49;;;;;;;;;;;17.80;95.30;;;;;;5078225;28;19931;-68
2022/11/09 14:08:20;;;;;;;;;;;17.80;95.30;;;;;;5077885;28;19926;-68
2022/11/09 14:10:58;;;;;;;;;;;17.90;95.40;;;;;;5111882;28;19924;-68
2022/11/09 14:13:27;;;;;;;;;;;18.10;95.50;;;;;;5075369;28;20027;-68
2022/11/09 14:15:52;;;;;;;;;;;17.70;95.10;;;;;;5078071;28;19928;-68
2022/11/09 14:18:34;;;;;;;;;;;17.80;95.70;;;;;;5077824;28;20420;-68
2022/11/09 14:21:18;;;;;;;;;;;17.80;95.60;;;;;;5044625;28;19924;-69
2022/11/09 14:23:44;;;;;;;;;;;17.70;95.10;;;;;;5092744;28;19950;-68
2022/11/09 14:26:15;;;;;;;;;;;17.70;95.60;;;;;;5091657;28;20437;-68